Pilot Station, Alaska
Current Conditions -  °F | °C
As of 10:16 AM on Friday 24 Oct 2014 (Local Time) from PASM Reporting Station
Overcast Overcast  
Wind Chill: 18°   Ceiling: 200
Heat Index: 28°   Visibility: 1.2mi
Dew Point: 25°   Wind: 12mph
Humidity: 86%   Direction: 180°S
Pressure: 29.87"   Gusts: NA
Location:  61.94°N, 162.88°W
Report Text: PASM 241816Z AUTO 18010KT 1 1/4SM BKN002 OVC120 M02/M04 A2987 RMK AO1
Loading
Personal Weather Stations






























Interactive Weather Map New forecast layout! Learn more

10-Day Weather Forecast

Advertisements
Track Severe Weather on mobile